sensor_id;sensor_type;location;lat;lon;timestamp;pressure;altitude;pressure_sealevel;temperature;humidity
5283;BME280;15376;48.540;9.268;2022-09-14T00:02:24;96616.78;;;17.57;100.00
5283;BME280;15376;48.540;9.268;2022-09-14T00:04:50;96610.34;;;17.58;100.00
5283;BME280;15376;48.540;9.268;2022-09-14T00:07:15;96614.13;;;17.62;100.00
5283;BME280;15376;48.540;9.268;2022-09-14T00:09:41;96590.41;;;17.54;100.00
5283;BME280;15376;48.540;9.268;2022-09-14T00:12:08;96598.22;;;17.55;100.00
5283;BME280;15376;48.540;9.268;2022-09-14T00:14:34;96593.47;;;17.62;100.00
5283;BME280;15376;48.540;9.268;2022-09-14T00:17:00;96587.63;;;17.65;100.00
5283;BME280;15376;48.540;9.268;2022-09-14T00:19:26;96580.38;;;17.66;100.00
5283;BME280;15376;48.540;9.268;2022-09-14T00:21:54;96573.59;;;17.63;100.00
5283;BME280;15376;48.540;9.268;2022-09-14T00:24:20;96567.25;;;17.70;100.00
5283;BME280;15376;48.540;9.268;2022-09-14T00:26:46;96562.38;;;17.66;100.00
5283;BME280;15376;48.540;9.268;2022-09-14T00:29:12;96565.38;;;17.70;100.00
5283;BME280;15376;48.540;9.268;2022-09-14T00:31:38;96566.44;;;17.69;100.00
5283;BME280;15376;48.540;9.268;2022-09-14T00:34:07;96561.91;;;17.70;100.00
5283;BME280;15376;48.540;9.268;2022-09-14T00:36:39;96569.84;;;17.64;100.00
5283;BME280;15376;48.540;9.268;2022-09-14T00:39:05;96568.13;;;17.53;100.00
5283;BME280;15376;48.540;9.268;2022-09-14T00:41:34;96552.84;;;17.54;100.00
5283;BME280;15376;48.540;9.268;2022-09-14T00:44:07;96542.09;;;17.54;100.00
5283;BME280;15376;48.540;9.268;2022-09-14T00:46:54;96535.91;;;17.53;100.00
5283;BME280;15376;48.540;9.268;2022-09-14T00:52:19;96534.78;;;17.49;100.00
5283;BME280;15376;48.540;9.268;2022-09-14T00:54:52;96528.91;;;17.52;100.00
5283;BME280;15376;48.540;9.268;2022-09-14T00:57:20;96522.56;;;17.58;100.00
5283;BME280;15376;48.540;9.268;2022-09-14T00:59:47;96530.16;;;17.66;100.00
5283;BME280;15376;48.540;9.268;2022-09-14T01:02:13;96530.78;;;17.74;100.00
5283;BME280;15376;48.540;9.268;2022-09-14T01:04:39;96525.72;;;17.77;100.00
5283;BME280;15376;48.540;9.268;2022-09-14T01:09:42;96524.72;;;17.83;100.00
5283;BME280;15376;48.540;9.268;2022-09-14T01:12:32;96500.56;;;17.83;100.00
5283;BME280;15376;48.540;9.268;2022-09-14T01:15:10;96495.53;;;17.92;100.00
5283;BME280;15376;48.540;9.268;2022-09-14T01:17:55;96487.44;;;17.87;100.00
5283;BME280;15376;48.540;9.268;2022-09-14T01:20:25;96511.59;;;18.14;100.00
5283;BME280;15376;48.540;9.268;2022-09-14T01:22:57;96529.59;;;18.13;100.00
5283;BME280;15376;48.540;9.268;2022-09-14T01:28:22;96481.84;;;17.66;100.00
5283;BME280;15376;48.540;9.268;2022-09-14T01:30:51;96503.78;;;17.63;100.00
5283;BME280;15376;48.540;9.268;2022-09-14T01:33:25;96496.91;;;17.46;100.00
5283;BME280;15376;48.540;9.268;2022-09-14T01:35:56;96535.66;;;17.55;100.00
5283;BME280;15376;48.540;9.268;2022-09-14T01:40:58;96532.09;;;17.49;100.00
5283;BME280;15376;48.540;9.268;2022-09-14T01:43:37;96519.63;;;17.38;100.00
5283;BME280;15376;48.540;9.268;2022-09-14T01:46:17;96516.78;;;17.28;100.00
5283;BME280;15376;48.540;9.268;2022-09-14T01:48:52;96500.59;;;17.18;100.00
5283;BME280;15376;48.540;9.268;2022-09-14T01:51:28;96538.75;;;17.25;100.00
5283;BME280;15376;48.540;9.268;2022-09-14T01:54:06;96552.41;;;17.23;100.00
5283;BME280;15376;48.540;9.268;2022-09-14T01:56:38;96562.06;;;17.19;100.00
5283;BME280;15376;48.540;9.268;2022-09-14T01:59:09;96552.16;;;17.03;100.00
5283;BME280;15376;48.540;9.268;2022-09-14T02:01:40;96596.59;;;17.16;100.00
5283;BME280;15376;48.540;9.268;2022-09-14T02:04:10;96612.06;;;17.09;100.00
5283;BME280;15376;48.540;9.268;2022-09-14T02:06:40;96623.75;;;17.19;100.00
5283;BME280;15376;48.540;9.268;2022-09-14T02:09:09;96612.63;;;17.11;100.00
5283;BME280;15376;48.540;9.268;2022-09-14T02:11:35;96603.94;;;17.04;100.00
5283;BME280;15376;48.540;9.268;2022-09-14T02:14:02;96628.31;;;17.02;100.00
5283;BME280;15376;48.540;9.268;2022-09-14T02:16:28;96629.69;;;17.05;100.00
5283;BME280;15376;48.540;9.268;2022-09-14T02:18:54;96619.28;;;17.08;100.00
5283;BME280;15376;48.540;9.268;2022-09-14T02:21:25;96617.91;;;17.06;100.00
5283;BME280;15376;48.540;9.268;2022-09-14T02:23:52;96609.63;;;17.07;100.00
5283;BME280;15376;48.540;9.268;2022-09-14T02:26:18;96596.03;;;17.14;100.00
5283;BME280;15376;48.540;9.268;2022-09-14T02:28:45;96602.47;;;17.13;100.00
5283;BME280;15376;48.540;9.268;2022-09-14T02:36:48;96597.59;;;17.10;100.00
5283;BME280;15376;48.540;9.268;2022-09-14T02:39:34;96588.41;;;17.06;100.00
5283;BME280;15376;48.540;9.268;2022-09-14T02:42:13;96593.78;;;17.06;100.00
5283;BME280;15376;48.540;9.268;2022-09-14T02:47:27;96595.00;;;16.98;100.00
5283;BME280;15376;48.540;9.268;2022-09-14T02:53:17;96579.47;;;17.00;100.00
5283;BME280;15376;48.540;9.268;2022-09-14T02:56:06;96580.84;;;17.03;100.00
5283;BME280;15376;48.540;9.268;2022-09-14T02:58:37;96572.78;;;17.03;100.00
5283;BME280;15376;48.540;9.268;2022-09-14T03:01:04;96572.22;;;17.00;100.00
5283;BME280;15376;48.540;9.268;2022-09-14T03:03:30;96579.72;;;16.98;100.00
5283;BME280;15376;48.540;9.268;2022-09-14T03:05:58;96570.03;;;16.97;100.00
5283;BME280;15376;48.540;9.268;2022-09-14T03:08:27;96564.44;;;16.99;100.00
5283;BME280;15376;48.540;9.268;2022-09-14T03:10:52;96562.56;;;16.99;100.00
5283;BME280;15376;48.540;9.268;2022-09-14T03:13:18;96562.56;;;16.99;100.00
5283;BME280;15376;48.540;9.268;2022-09-14T03:15:44;96563.13;;;17.02;100.00
5283;BME280;15376;48.540;9.268;2022-09-14T03:18:09;96558.31;;;17.04;100.00
5283;BME280;15376;48.540;9.268;2022-09-14T03:20:35;96562.38;;;17.06;100.00
5283;BME280;15376;48.540;9.268;2022-09-14T03:23:02;96556.47;;;17.04;100.00
5283;BME280;15376;48.540;9.268;2022-09-14T03:25:28;96534.59;;;16.95;100.00
5283;BME280;15376;48.540;9.268;2022-09-14T03:27:56;96551.34;;;17.03;100.00
5283;BME280;15376;48.540;9.268;2022-09-14T03:30:22;96562.06;;;17.03;100.00
5283;BME280;15376;48.540;9.268;2022-09-14T03:32:47;96580.03;;;17.02;100.00
5283;BME280;15376;48.540;9.268;2022-09-14T03:35:13;96573.84;;;17.02;100.00
5283;BME280;15376;48.540;9.268;2022-09-14T03:37:40;96559.38;;;17.03;100.00
5283;BME280;15376;48.540;9.268;2022-09-14T03:40:08;96563.69;;;17.04;100.00
5283;BME280;15376;48.540;9.268;2022-09-14T03:42:34;96559.47;;;17.08;100.00
5283;BME280;15376;48.540;9.268;2022-09-14T03:45:00;96565.31;;;17.05;100.00
5283;BME280;15376;48.540;9.268;2022-09-14T03:47:25;96545.81;;;16.92;100.00
5283;BME280;15376;48.540;9.268;2022-09-14T03:49:51;96536.22;;;16.96;100.00
5283;BME280;15376;48.540;9.268;2022-09-14T03:52:17;96543.03;;;17.04;100.00
5283;BME280;15376;48.540;9.268;2022-09-14T03:54:43;96530.94;;;17.02;100.00
5283;BME280;15376;48.540;9.268;2022-09-14T03:57:08;96534.25;;;17.09;100.00
5283;BME280;15376;48.540;9.268;2022-09-14T03:59:34;96521.25;;;17.00;100.00
5283;BME280;15376;48.540;9.268;2022-09-14T04:02:00;96538.25;;;17.06;100.00
5283;BME280;15376;48.540;9.268;2022-09-14T04:04:26;96512.16;;;17.02;100.00
5283;BME280;15376;48.540;9.268;2022-09-14T04:06:51;96521.91;;;17.08;100.00
5283;BME280;15376;48.540;9.268;2022-09-14T04:09:17;96498.75;;;17.02;100.00
5283;BME280;15376;48.540;9.268;2022-09-14T04:11:44;96495.66;;;17.10;100.00
5283;BME280;15376;48.540;9.268;2022-09-14T04:14:09;96497.03;;;17.12;100.00
5283;BME280;15376;48.540;9.268;2022-09-14T04:16:35;96496.72;;;17.09;100.00
5283;BME280;15376;48.540;9.268;2022-09-14T04:19:00;96498.75;;;17.02;100.00
5283;BME280;15376;48.540;9.268;2022-09-14T04:21:26;96503.56;;;16.99;100.00
5283;BME280;15376;48.540;9.268;2022-09-14T04:23:55;96511.84;;;16.98;100.00
5283;BME280;15376;48.540;9.268;2022-09-14T04:26:24;96497.72;;;16.86;100.00
5283;BME280;15376;48.540;9.268;2022-09-14T04:28:50;96529.56;;;16.99;100.00
5283;BME280;15376;48.540;9.268;2022-09-14T04:31:15;96519.16;;;17.03;100.00
5283;BME280;15376;48.540;9.268;2022-09-14T04:33:42;96520.03;;;17.08;100.00
5283;BME280;15376;48.540;9.268;2022-09-14T04:36:13;96512.81;;;17.09;100.00
5283;BME280;15376;48.540;9.268;2022-09-14T04:38:39;96497.63;;;16.97;100.00
5283;BME280;15376;48.540;9.268;2022-09-14T04:41:07;96515.41;;;17.04;100.00
5283;BME280;15376;48.540;9.268;2022-09-14T04:43:33;96514.34;;;17.05;100.00
5283;BME280;15376;48.540;9.268;2022-09-14T04:46:16;96512.97;;;17.02;100.00
5283;BME280;15376;48.540;9.268;2022-09-14T04:48:42;96516.22;;;17.04;100.00
5283;BME280;15376;48.540;9.268;2022-09-14T04:51:10;96511.66;;;17.05;100.00
5283;BME280;15376;48.540;9.268;2022-09-14T04:53:38;96516.28;;;17.09;100.00
5283;BME280;15376;48.540;9.268;2022-09-14T04:56:06;96507.94;;;17.06;100.00
5283;BME280;15376;48.540;9.268;2022-09-14T04:58:32;96527.28;;;17.08;100.00
5283;BME280;15376;48.540;9.268;2022-09-14T05:01:02;96543.38;;;17.08;100.00
5283;BME280;15376;48.540;9.268;2022-09-14T05:03:28;96542.31;;;17.09;100.00
5283;BME280;15376;48.540;9.268;2022-09-14T05:05:53;96539.13;;;17.12;100.00
5283;BME280;15376;48.540;9.268;2022-09-14T05:08:19;96545.63;;;17.16;100.00
5283;BME280;15376;48.540;9.268;2022-09-14T05:10:44;96543.75;;;17.16;100.00
5283;BME280;15376;48.540;9.268;2022-09-14T05:13:10;96525.78;;;17.17;100.00
5283;BME280;15376;48.540;9.268;2022-09-14T05:15:35;96521.72;;;17.14;100.00
5283;BME280;15376;48.540;9.268;2022-09-14T05:18:01;96527.66;;;17.16;100.00
5283;BME280;15376;48.540;9.268;2022-09-14T05:20:28;96524.16;;;17.16;100.00
5283;BME280;15376;48.540;9.268;2022-09-14T05:22:53;96521.25;;;17.17;100.00
5283;BME280;15376;48.540;9.268;2022-09-14T05:25:18;96528.22;;;17.18;100.00
5283;BME280;15376;48.540;9.268;2022-09-14T05:27:44;96526.34;;;17.19;100.00
5283;BME280;15376;48.540;9.268;2022-09-14T05:30:09;96523.16;;;17.22;100.00
5283;BME280;15376;48.540;9.268;2022-09-14T05:32:35;96515.66;;;17.24;100.00
5283;BME280;15376;48.540;9.268;2022-09-14T05:35:00;96501.09;;;17.15;100.00
5283;BME280;15376;48.540;9.268;2022-09-14T05:37:25;96510.84;;;17.26;100.00
5283;BME280;15376;48.540;9.268;2022-09-14T05:39:52;96512.25;;;17.28;100.00
5283;BME280;15376;48.540;9.268;2022-09-14T05:42:17;96503.31;;;17.23;100.00
5283;BME280;15376;48.540;9.268;2022-09-14T05:44:43;96511.75;;;17.31;100.00
5283;BME280;15376;48.540;9.268;2022-09-14T05:47:08;96512.06;;;17.35;100.00
5283;BME280;15376;48.540;9.268;2022-09-14T05:49:33;96514.19;;;17.33;100.00
5283;BME280;15376;48.540;9.268;2022-09-14T05:51:59;96519.84;;;17.37;100.00
5283;BME280;15376;48.540;9.268;2022-09-14T05:54:24;96487.78;;;17.25;100.00
5283;BME280;15376;48.540;9.268;2022-09-14T05:56:49;96520.25;;;17.45;100.00
5283;BME280;15376;48.540;9.268;2022-09-14T05:59:15;96512.00;;;17.52;100.00
5283;BME280;15376;48.540;9.268;2022-09-14T06:01:40;96517.19;;;17.58;100.00
5283;BME280;15376;48.540;9.268;2022-09-14T06:04:05;96514.06;;;17.66;100.00
5283;BME280;15376;48.540;9.268;2022-09-14T06:06:32;96510.94;;;17.75;100.00
5283;BME280;15376;48.540;9.268;2022-09-14T06:08:58;96515.59;;;17.84;100.00
5283;BME280;15376;48.540;9.268;2022-09-14T06:11:34;96511.97;;;17.95;100.00
5283;BME280;15376;48.540;9.268;2022-09-14T06:14:03;96514.19;;;18.04;100.00
5283;BME280;15376;48.540;9.268;2022-09-14T06:16:28;96511.34;;;18.15;100.00
5283;BME280;15376;48.540;9.268;2022-09-14T06:18:56;96509.25;;;18.22;100.00
5283;BME280;15376;48.540;9.268;2022-09-14T06:21:22;96510.94;;;18.28;100.00
5283;BME280;15376;48.540;9.268;2022-09-14T06:23:48;96515.28;;;18.35;100.00
5283;BME280;15376;48.540;9.268;2022-09-14T06:26:15;96519.03;;;18.33;100.00
5283;BME280;15376;48.540;9.268;2022-09-14T06:28:41;96523.09;;;18.36;100.00
5283;BME280;15376;48.540;9.268;2022-09-14T06:31:07;96527.16;;;18.39;100.00
5283;BME280;15376;48.540;9.268;2022-09-14T06:33:34;96535.22;;;18.39;100.00
5283;BME280;15376;48.540;9.268;2022-09-14T06:36:02;96533.84;;;18.36;100.00
5283;BME280;15376;48.540;9.268;2022-09-14T06:38:28;96506.53;;;18.17;100.00
5283;BME280;15376;48.540;9.268;2022-09-14T06:40:55;96525.53;;;18.38;100.00
5283;BME280;15376;48.540;9.268;2022-09-14T06:43:22;96520.63;;;18.29;100.00
5283;BME280;15376;48.540;9.268;2022-09-14T06:46:02;96516.81;;;18.25;100.00
5283;BME280;15376;48.540;9.268;2022-09-14T06:48:34;96530.38;;;18.41;100.00
5283;BME280;15376;48.540;9.268;2022-09-14T06:51:10;96520.16;;;18.38;100.00
5283;BME280;15376;48.540;9.268;2022-09-14T06:53:35;96519.19;;;18.54;100.00
5283;BME280;15376;48.540;9.268;2022-09-14T06:56:01;96513.31;;;18.57;100.00
5283;BME280;15376;48.540;9.268;2022-09-14T06:58:26;96511.81;;;18.66;100.00
5283;BME280;15376;48.540;9.268;2022-09-14T07:00:51;96503.81;;;18.76;100.00
5283;BME280;15376;48.540;9.268;2022-09-14T07:03:17;96502.50;;;18.84;100.00
5283;BME280;15376;48.540;9.268;2022-09-14T07:05:42;96509.31;;;18.96;100.00
5283;BME280;15376;48.540;9.268;2022-09-14T07:08:08;96520.69;;;19.09;100.00
5283;BME280;15376;48.540;9.268;2022-09-14T07:10:33;96525.56;;;19.17;100.00
5283;BME280;15376;48.540;9.268;2022-09-14T07:12:58;96537.72;;;19.24;100.00
5283;BME280;15376;48.540;9.268;2022-09-14T07:15:24;96527.78;;;19.30;100.00
5283;BME280;15376;48.540;9.268;2022-09-14T07:17:49;96525.16;;;19.45;100.00
5283;BME280;15376;48.540;9.268;2022-09-14T07:20:15;96528.50;;;19.62;100.00
5283;BME280;15376;48.540;9.268;2022-09-14T07:22:41;96540.13;;;19.73;100.00
5283;BME280;15376;48.540;9.268;2022-09-14T07:25:08;96516.19;;;19.87;100.00
5283;BME280;15376;48.540;9.268;2022-09-14T07:27:33;96517.31;;;20.11;100.00
5283;BME280;15376;48.540;9.268;2022-09-14T07:29:59;96523.50;;;20.17;100.00
5283;BME280;15376;48.540;9.268;2022-09-14T07:32:24;96519.75;;;20.23;100.00
5283;BME280;15376;48.540;9.268;2022-09-14T07:34:49;96531.91;;;20.36;100.00
5283;BME280;15376;48.540;9.268;2022-09-14T07:37:15;96540.31;;;20.54;100.00
5283;BME280;15376;48.540;9.268;2022-09-14T07:39:40;96546.50;;;20.50;100.00
5283;BME280;15376;48.540;9.268;2022-09-14T07:42:06;96549.75;;;20.57;100.00
5283;BME280;15376;48.540;9.268;2022-09-14T07:44:31;96547.59;;;20.74;100.00
5283;BME280;15376;48.540;9.268;2022-09-14T07:46:56;96531.94;;;20.71;100.00
5283;BME280;15376;48.540;9.268;2022-09-14T07:49:21;96538.41;;;20.75;100.00
5283;BME280;15376;48.540;9.268;2022-09-14T07:51:47;96546.22;;;20.87;100.00
5283;BME280;15376;48.540;9.268;2022-09-14T07:54:14;96543.25;;;20.98;100.00
5283;BME280;15376;48.540;9.268;2022-09-14T07:56:40;96536.78;;;20.94;100.00
5283;BME280;15376;48.540;9.268;2022-09-14T07:59:09;96550.78;;;21.17;100.00
5283;BME280;15376;48.540;9.268;2022-09-14T08:01:35;96554.53;;;21.36;100.00
5283;BME280;15376;48.540;9.268;2022-09-14T08:04:01;96559.31;;;21.59;100.00
5283;BME280;15376;48.540;9.268;2022-09-14T08:06:27;96556.00;;;21.78;100.00
5283;BME280;15376;48.540;9.268;2022-09-14T08:08:53;96556.53;;;21.85;100.00
5283;BME280;15376;48.540;9.268;2022-09-14T08:11:27;96573.81;;;21.89;100.00
5283;BME280;15376;48.540;9.268;2022-09-14T08:13:58;96574.53;;;22.00;100.00
5283;BME280;15376;48.540;9.268;2022-09-14T08:16:25;96572.09;;;22.08;100.00
5283;BME280;15376;48.540;9.268;2022-09-14T08:18:56;96580.75;;;22.10;100.00
5283;BME280;15376;48.540;9.268;2022-09-14T08:21:22;96591.00;;;22.13;100.00
5283;BME280;15376;48.540;9.268;2022-09-14T08:23:48;96603.13;;;22.26;100.00
5283;BME280;15376;48.540;9.268;2022-09-14T08:26:19;96605.38;;;22.53;100.00
5283;BME280;15376;48.540;9.268;2022-09-14T08:28:46;96621.06;;;22.56;100.00
5283;BME280;15376;48.540;9.268;2022-09-14T08:31:23;96612.97;;;22.51;100.00
5283;BME280;15376;48.540;9.268;2022-09-14T08:33:57;96605.03;;;22.65;100.00
5283;BME280;15376;48.540;9.268;2022-09-14T08:36:25;96603.50;;;22.92;100.00
5283;BME280;15376;48.540;9.268;2022-09-14T08:38:50;96609.66;;;23.03;100.00
5283;BME280;15376;48.540;9.268;2022-09-14T08:41:29;96618.91;;;23.26;100.00
5283;BME280;15376;48.540;9.268;2022-09-14T08:44:04;96631.03;;;23.34;100.00
5283;BME280;15376;48.540;9.268;2022-09-14T08:46:40;96636.38;;;23.15;100.00
5283;BME280;15376;48.540;9.268;2022-09-14T08:51:46;96620.28;;;22.94;100.00
5283;BME280;15376;48.540;9.268;2022-09-14T08:54:11;96624.84;;;22.99;100.00
5283;BME280;15376;48.540;9.268;2022-09-14T08:56:40;96623.72;;;23.05;100.00
5283;BME280;15376;48.540;9.268;2022-09-14T09:02:24;96624.91;;;23.23;100.00
5283;BME280;15376;48.540;9.268;2022-09-14T09:05:15;96610.66;;;23.41;100.00
5283;BME280;15376;48.540;9.268;2022-09-14T09:07:57;96600.47;;;23.28;100.00
5283;BME280;15376;48.540;9.268;2022-09-14T09:10:25;96608.19;;;23.45;100.00
5283;BME280;15376;48.540;9.268;2022-09-14T09:12:57;96605.47;;;23.45;100.00
5283;BME280;15376;48.540;9.268;2022-09-14T09:15:33;96617.59;;;23.52;100.00
5283;BME280;15376;48.540;9.268;2022-09-14T09:18:07;96605.84;;;23.62;100.00
5283;BME280;15376;48.540;9.268;2022-09-14T09:20:38;96626.28;;;24.26;100.00
5283;BME280;15376;48.540;9.268;2022-09-14T09:23:14;96616.63;;;25.41;100.00
5283;BME280;15376;48.540;9.268;2022-09-14T09:25:44;96614.72;;;26.51;96.76
5283;BME280;15376;48.540;9.268;2022-09-14T09:28:13;96616.53;;;28.07;85.14
5283;BME280;15376;48.540;9.268;2022-09-14T09:30:39;96604.31;;;28.62;79.82
5283;BME280;15376;48.540;9.268;2022-09-14T09:33:06;96603.84;;;28.85;74.99
5283;BME280;15376;48.540;9.268;2022-09-14T09:35:32;96599.50;;;29.19;73.62
5283;BME280;15376;48.540;9.268;2022-09-14T09:37:57;96599.31;;;28.38;75.07
5283;BME280;15376;48.540;9.268;2022-09-14T09:40:45;96584.47;;;29.51;72.09
5283;BME280;15376;48.540;9.268;2022-09-14T09:43:15;96579.88;;;29.17;70.95
5283;BME280;15376;48.540;9.268;2022-09-14T09:48:15;96574.81;;;27.36;82.53
5283;BME280;15376;48.540;9.268;2022-09-14T09:53:22;96581.28;;;29.78;69.79
5283;BME280;15376;48.540;9.268;2022-09-14T09:55:48;96574.47;;;29.55;70.32
5283;BME280;15376;48.540;9.268;2022-09-14T09:58:37;96566.63;;;30.83;68.39
5283;BME280;15376;48.540;9.268;2022-09-14T10:01:16;96550.78;;;31.67;65.23
5283;BME280;15376;48.540;9.268;2022-09-14T10:03:42;96554.59;;;33.20;58.36
5283;BME280;15376;48.540;9.268;2022-09-14T10:06:15;96537.22;;;32.88;57.55
5283;BME280;15376;48.540;9.268;2022-09-14T10:08:45;96538.78;;;34.42;50.79
5283;BME280;15376;48.540;9.268;2022-09-14T10:11:33;96527.28;;;34.05;51.40
5283;BME280;15376;48.540;9.268;2022-09-14T10:14:01;96519.72;;;34.34;50.03
5283;BME280;15376;48.540;9.268;2022-09-14T10:16:33;96518.34;;;33.77;50.63
5283;BME280;15376;48.540;9.268;2022-09-14T10:19:00;96513.47;;;32.27;52.46
5283;BME280;15376;48.540;9.268;2022-09-14T10:21:27;96504.19;;;32.07;56.56
5283;BME280;15376;48.540;9.268;2022-09-14T10:24:22;96511.31;;;31.72;55.82
5283;BME280;15376;48.540;9.268;2022-09-14T10:26:47;96504.38;;;30.42;59.89
5283;BME280;15376;48.540;9.268;2022-09-14T10:29:27;96504.66;;;29.78;63.84
5283;BME280;15376;48.540;9.268;2022-09-14T10:32:00;96499.97;;;29.79;66.11
5283;BME280;15376;48.540;9.268;2022-09-14T10:34:28;96477.13;;;29.45;66.81
5283;BME280;15376;48.540;9.268;2022-09-14T10:37:10;96478.22;;;29.53;66.07
5283;BME280;15376;48.540;9.268;2022-09-14T10:39:43;96489.22;;;29.44;66.88
5283;BME280;15376;48.540;9.268;2022-09-14T10:42:26;96486.81;;;29.43;65.37
5283;BME280;15376;48.540;9.268;2022-09-14T10:45:17;96476.34;;;28.90;69.89
5283;BME280;15376;48.540;9.268;2022-09-14T10:56:23;96453.44;;;27.08;78.22
5283;BME280;15376;48.540;9.268;2022-09-14T11:07:41;96430.97;;;26.71;78.58
5283;BME280;15376;48.540;9.268;2022-09-14T11:10:28;96440.00;;;27.11;76.36
5283;BME280;15376;48.540;9.268;2022-09-14T11:13:52;96440.69;;;26.95;77.96
5283;BME280;15376;48.540;9.268;2022-09-14T11:22:17;96434.19;;;26.73;77.96
5283;BME280;15376;48.540;9.268;2022-09-14T11:24:49;96434.56;;;26.58;76.08
5283;BME280;15376;48.540;9.268;2022-09-14T11:27:38;96438.47;;;26.43;77.18
5283;BME280;15376;48.540;9.268;2022-09-14T11:35:27;96413.13;;;26.34;77.77
5283;BME280;15376;48.540;9.268;2022-09-14T11:38:28;96415.25;;;26.46;76.98
5283;BME280;15376;48.540;9.268;2022-09-14T11:43:39;96428.94;;;26.54;76.10
5283;BME280;15376;48.540;9.268;2022-09-14T11:46:10;96431.84;;;26.58;74.23
5283;BME280;15376;48.540;9.268;2022-09-14T11:48:40;96436.34;;;26.63;77.80
5283;BME280;15376;48.540;9.268;2022-09-14T11:51:14;96417.47;;;26.44;74.50
5283;BME280;15376;48.540;9.268;2022-09-14T11:53:42;96406.66;;;26.30;74.00
5283;BME280;15376;48.540;9.268;2022-09-14T11:56:22;96426.03;;;26.29;73.47
5283;BME280;15376;48.540;9.268;2022-09-14T11:58:52;96432.13;;;26.12;71.66
5283;BME280;15376;48.540;9.268;2022-09-14T12:01:30;96436.03;;;26.19;72.73
5283;BME280;15376;48.540;9.268;2022-09-14T12:11:44;96441.81;;;25.82;79.95
5283;BME280;15376;48.540;9.268;2022-09-14T12:17:16;96449.28;;;25.21;82.05
5283;BME280;15376;48.540;9.268;2022-09-14T12:19:45;96455.94;;;25.02;84.24
5283;BME280;15376;48.540;9.268;2022-09-14T12:27:38;96473.25;;;24.73;87.13
5283;BME280;15376;48.540;9.268;2022-09-14T12:35:55;96487.78;;;24.12;85.90
5283;BME280;15376;48.540;9.268;2022-09-14T12:40:59;96510.59;;;23.69;90.93
5283;BME280;15376;48.540;9.268;2022-09-14T13:04:24;96543.34;;;22.27;100.00
5283;BME280;15376;48.540;9.268;2022-09-14T13:06:52;96524.50;;;22.12;100.00
5283;BME280;15376;48.540;9.268;2022-09-14T13:09:28;96554.47;;;22.21;100.00
5283;BME280;15376;48.540;9.268;2022-09-14T13:11:59;96539.16;;;22.01;100.00
5283;BME280;15376;48.540;9.268;2022-09-14T13:14:29;96554.59;;;21.90;100.00
5283;BME280;15376;48.540;9.268;2022-09-14T13:16:58;96550.63;;;21.68;100.00
5283;BME280;15376;48.540;9.268;2022-09-14T13:19:31;96551.28;;;21.44;100.00
5283;BME280;15376;48.540;9.268;2022-09-14T13:21:59;96545.91;;;21.24;100.00
5283;BME280;15376;48.540;9.268;2022-09-14T13:24:34;96555.94;;;20.93;100.00
5283;BME280;15376;48.540;9.268;2022-09-14T13:27:02;96550.03;;;20.66;100.00
5283;BME280;15376;48.540;9.268;2022-09-14T13:29:28;96529.78;;;20.63;100.00
5283;BME280;15376;48.540;9.268;2022-09-14T13:31:56;96512.25;;;20.55;100.00
5283;BME280;15376;48.540;9.268;2022-09-14T13:34:25;96533.84;;;20.76;100.00
5283;BME280;15376;48.540;9.268;2022-09-14T13:36:52;96515.22;;;20.74;100.00
5283;BME280;15376;48.540;9.268;2022-09-14T13:39:33;96524.38;;;20.78;100.00
5283;BME280;15376;48.540;9.268;2022-09-14T13:42:00;96538.13;;;20.82;100.00
5283;BME280;15376;48.540;9.268;2022-09-14T13:44:33;96536.50;;;20.91;100.00
5283;BME280;15376;48.540;9.268;2022-09-14T13:47:02;96530.03;;;20.97;100.00
5283;BME280;15376;48.540;9.268;2022-09-14T13:49:28;96537.31;;;20.96;100.00
5283;BME280;15376;48.540;9.268;2022-09-14T13:52:32;96537.84;;;20.88;100.00
5283;BME280;15376;48.540;9.268;2022-09-14T14:00:30;96514.38;;;20.84;100.00
5283;BME280;15376;48.540;9.268;2022-09-14T14:03:01;96512.72;;;21.03;100.00
5283;BME280;15376;48.540;9.268;2022-09-14T14:05:32;96512.41;;;21.20;100.00
5283;BME280;15376;48.540;9.268;2022-09-14T14:08:00;96514.56;;;21.28;100.00
5283;BME280;15376;48.540;9.268;2022-09-14T14:10:32;96513.47;;;21.34;100.00
5283;BME280;15376;48.540;9.268;2022-09-14T14:12:59;96511.06;;;21.27;100.00
5283;BME280;15376;48.540;9.268;2022-09-14T14:17:52;96500.00;;;21.29;100.00
5283;BME280;15376;48.540;9.268;2022-09-14T14:20:31;96518.34;;;21.37;100.00
5283;BME280;15376;48.540;9.268;2022-09-14T14:25:44;96508.81;;;21.55;100.00
5283;BME280;15376;48.540;9.268;2022-09-14T14:28:22;96497.28;;;21.34;100.00
5283;BME280;15376;48.540;9.268;2022-09-14T14:30:48;96502.13;;;21.37;100.00
5283;BME280;15376;48.540;9.268;2022-09-14T14:33:16;96534.53;;;21.37;100.00
5283;BME280;15376;48.540;9.268;2022-09-14T14:35:45;96537.81;;;21.24;100.00
5283;BME280;15376;48.540;9.268;2022-09-14T14:38:11;96538.91;;;21.13;100.00
5283;BME280;15376;48.540;9.268;2022-09-14T14:40:37;96555.38;;;21.06;100.00
5283;BME280;15376;48.540;9.268;2022-09-14T14:43:04;96555.94;;;20.93;100.00
5283;BME280;15376;48.540;9.268;2022-09-14T14:45:31;96543.81;;;20.75;100.00
5283;BME280;15376;48.540;9.268;2022-09-14T14:47:57;96548.66;;;20.63;100.00
5283;BME280;15376;48.540;9.268;2022-09-14T14:50:33;96548.88;;;20.31;100.00
5283;BME280;15376;48.540;9.268;2022-09-14T14:53:00;96548.00;;;19.90;100.00
5283;BME280;15376;48.540;9.268;2022-09-14T14:55:27;96558.94;;;19.58;100.00
5283;BME280;15376;48.540;9.268;2022-09-14T14:57:58;96565.47;;;19.30;100.00
5283;BME280;15376;48.540;9.268;2022-09-14T15:00:30;96556.69;;;19.03;100.00
5283;BME280;15376;48.540;9.268;2022-09-14T15:02:57;96548.78;;;18.86;100.00
5283;BME280;15376;48.540;9.268;2022-09-14T15:05:23;96562.53;;;18.89;100.00
5283;BME280;15376;48.540;9.268;2022-09-14T15:07:48;96552.56;;;18.90;100.00
5283;BME280;15376;48.540;9.268;2022-09-14T15:10:17;96545.56;;;18.89;100.00
5283;BME280;15376;48.540;9.268;2022-09-14T15:12:43;96542.06;;;18.88;100.00
5283;BME280;15376;48.540;9.268;2022-09-14T15:15:17;96531.28;;;18.83;100.00
5283;BME280;15376;48.540;9.268;2022-09-14T15:17:43;96528.56;;;18.78;100.00